Wolf, WY (82844)

7:36 AM MDT on June 30, 2015 (GMT -0600)
MesoWest | | Change Station
CLOSE
Current Station
Personal Weather Station
Location: Wolf, WY
Elevation: 7990 ft
Nearby Weather Stations

Elev 7990 ft 44.58 °N, 107.20 °W | Updated 1 hour ago

Partly Cloudy
Partly Cloudy
65 °F
Feels Like 65 °F
N
1
Wind Variable Wind from North
Gusts 4.0 mph

Today
High -- | Low -- °F
--% Chance of Precip.
Yesterday
High -- | Low -- °F
Precip. -- in
5:26 AM 8:58 PM
Waxing Gibbous, 97% visible
Pressure 29.88 in
Visibility 10.0 miles
Clouds Clear
Dew Point 44 °F
Humidity 45%
Rainfall in
Snow Depth Not available.
UV 1 out of 12
Pollen 6.40 out of 12
Air Quality Not available.
Flu Activity Sporadic
METAR KBYG 301253Z AUTO 32004KT 10SM CLR 19/12 A3008 RMK AO2 SLP118 T01940117

More Conditions Fewer Conditions

Pressure 29.88 in
Visibility 10.0 miles
Clouds Clear
Dew Point 44 °F
Humidity 45%
Rainfall in
Snow Depth Not available.
UV 1 out of 12
Pollen 6.40 out of 12
Air Quality Not available.
Flu Activity Sporadic
METAR KBYG 301253Z AUTO 32004KT 10SM CLR 19/12 A3008 RMK AO2 SLP118 T01940117

More Conditions Fewer Conditions

10-Day Weather Forecast

×

Almanac

Astronomy

Jun. 30, 2015 Rise Set
Actual Time
Civil Twilight
Nautical Twilight
Astronomical Twilight
Moon
Length of Visible Light
Length of Day
Tomorrow will be .
, % of the Moon is Illuminated

Today's Extremes

State Highs State Lows

Community

WunderPhotos

Upload Photos

1,833,994 photos uploaded!

WunderBlogs® & News

Nearby

Air Quality

  Air Quality AQ Index Pollutant
Not available.

Snow Depth

Station Depth Elevation

Earthquake Activity

City Distance Mag. Time & Date
Minimum magnitude displayed is 2.5.

Coastal Water Temperatures

Place Temperature

Stations

Nearby Weather Stations

Station Location Temp. Windchill Dew Point Humidity Wind Precip. Elev Updated Type